CheckWX is a tool to help pilots better visualize weather data.  It is not intended as a substitute for an official pre-flight weather briefing.

05:41:14 UTC

EFET METAR
Enontekio Airport
Enontekio, Finland
Current

21 mins ago

EFET 240520Z AUTO 20006KT CAVOK 03/01 Q1004
Observed
Feb-24 @ 05:20 UTC
Wind
  • 200° at 6 KTS
Visibility
10,000+ meters
Flight Rules
VFR
Cloud Levels
  • Clear skies
Temperature
C / 37°F
Dewpoint
C / 34°F
Humidity
87%
Altimeter
29.65" Hg
Pressure
1003.92 hPa
Previous

51 mins ago

EFET 240450Z AUTO 20004KT CAVOK 03/01 Q1005
Observed
Feb-24 @ 04:50 UTC
Wind
  • 200° at 4 KTS
Visibility
10,000+ meters
Flight Rules
VFR
Cloud Levels
  • Clear skies
Temperature
C / 37°F
Dewpoint
C / 34°F
Humidity
87%
Altimeter
29.68" Hg
Pressure
1004.92 hPa
Previous

1 hour ago

EFET 240420Z AUTO 21007KT CAVOK 03/01 Q1005
Observed
Feb-24 @ 04:20 UTC
Wind
  • 210° at 7 KTS
Visibility
10,000+ meters
Flight Rules
VFR
Cloud Levels
  • Clear skies
Temperature
C / 37°F
Dewpoint
C / 34°F
Humidity
87%
Altimeter
29.68" Hg
Pressure
1004.92 hPa